sensor_id;sensor_type;location;lat;lon;timestamp;P1;durP1;ratioP1;P2;durP2;ratioP2
42108;SDS011;27765;51.228;7.626;2022-08-01T00:01:09;25.35;;;17.17;;
42108;SDS011;27765;51.228;7.626;2022-08-01T00:03:37;23.45;;;16.25;;
42108;SDS011;27765;51.228;7.626;2022-08-01T00:06:02;29.23;;;17.35;;
42108;SDS011;27765;51.228;7.626;2022-08-01T00:08:28;24.35;;;17.10;;
42108;SDS011;27765;51.228;7.626;2022-08-01T00:10:54;28.27;;;17.23;;
42108;SDS011;27765;51.228;7.626;2022-08-01T00:13:20;26.85;;;16.90;;
42108;SDS011;27765;51.228;7.626;2022-08-01T00:15:47;26.45;;;17.15;;
42108;SDS011;27765;51.228;7.626;2022-08-01T00:18:13;26.55;;;16.45;;
42108;SDS011;27765;51.228;7.626;2022-08-01T00:20:39;26.60;;;16.13;;
42108;SDS011;27765;51.228;7.626;2022-08-01T00:23:05;24.85;;;15.15;;
42108;SDS011;27765;51.228;7.626;2022-08-01T00:25:31;26.55;;;15.38;;
42108;SDS011;27765;51.228;7.626;2022-08-01T00:27:57;28.90;;;17.05;;
42108;SDS011;27765;51.228;7.626;2022-08-01T00:30:22;29.83;;;15.27;;
42108;SDS011;27765;51.228;7.626;2022-08-01T00:32:48;24.15;;;15.40;;
42108;SDS011;27765;51.228;7.626;2022-08-01T00:35:15;25.30;;;15.13;;
42108;SDS011;27765;51.228;7.626;2022-08-01T00:37:41;25.40;;;16.30;;
42108;SDS011;27765;51.228;7.626;2022-08-01T00:40:07;28.13;;;15.68;;
42108;SDS011;27765;51.228;7.626;2022-08-01T00:42:34;31.75;;;16.10;;
42108;SDS011;27765;51.228;7.626;2022-08-01T00:44:59;27.98;;;17.15;;
42108;SDS011;27765;51.228;7.626;2022-08-01T00:47:25;28.23;;;16.63;;
42108;SDS011;27765;51.228;7.626;2022-08-01T00:49:51;21.67;;;13.75;;
42108;SDS011;27765;51.228;7.626;2022-08-01T00:52:17;24.63;;;13.65;;
42108;SDS011;27765;51.228;7.626;2022-08-01T00:54:43;25.20;;;14.82;;
42108;SDS011;27765;51.228;7.626;2022-08-01T00:57:10;26.52;;;14.75;;
42108;SDS011;27765;51.228;7.626;2022-08-01T00:59:37;31.02;;;15.70;;
42108;SDS011;27765;51.228;7.626;2022-08-01T01:02:05;30.75;;;16.65;;
42108;SDS011;27765;51.228;7.626;2022-08-01T01:04:31;29.27;;;17.70;;
42108;SDS011;27765;51.228;7.626;2022-08-01T01:07:09;36.22;;;18.73;;
42108;SDS011;27765;51.228;7.626;2022-08-01T01:09:45;35.20;;;19.08;;
42108;SDS011;27765;51.228;7.626;2022-08-01T01:12:36;39.20;;;19.25;;
42108;SDS011;27765;51.228;7.626;2022-08-01T01:15:22;40.03;;;20.80;;
42108;SDS011;27765;51.228;7.626;2022-08-01T01:18:01;41.58;;;20.25;;
42108;SDS011;27765;51.228;7.626;2022-08-01T01:23:40;29.15;;;16.98;;
42108;SDS011;27765;51.228;7.626;2022-08-01T01:32:05;28.80;;;14.95;;
42108;SDS011;27765;51.228;7.626;2022-08-01T01:34:39;26.88;;;14.23;;
42108;SDS011;27765;51.228;7.626;2022-08-01T01:37:09;28.67;;;14.82;;
42108;SDS011;27765;51.228;7.626;2022-08-01T01:39:40;24.45;;;13.55;;
42108;SDS011;27765;51.228;7.626;2022-08-01T01:42:08;28.95;;;14.07;;
42108;SDS011;27765;51.228;7.626;2022-08-01T01:44:34;47.15;;;17.05;;
42108;SDS011;27765;51.228;7.626;2022-08-01T01:47:01;37.63;;;18.25;;
42108;SDS011;27765;51.228;7.626;2022-08-01T01:49:28;40.70;;;18.80;;
42108;SDS011;27765;51.228;7.626;2022-08-01T01:51:56;41.75;;;19.48;;
42108;SDS011;27765;51.228;7.626;2022-08-01T01:54:27;58.70;;;23.23;;
42108;SDS011;27765;51.228;7.626;2022-08-01T01:56:57;52.25;;;23.35;;
42108;SDS011;27765;51.228;7.626;2022-08-01T01:59:25;59.03;;;24.45;;
42108;SDS011;27765;51.228;7.626;2022-08-01T02:01:55;71.22;;;27.73;;
42108;SDS011;27765;51.228;7.626;2022-08-01T02:04:24;75.95;;;30.17;;
42108;SDS011;27765;51.228;7.626;2022-08-01T02:06:52;89.88;;;31.42;;
42108;SDS011;27765;51.228;7.626;2022-08-01T02:09:20;84.82;;;31.80;;
42108;SDS011;27765;51.228;7.626;2022-08-01T02:11:48;88.35;;;31.60;;
42108;SDS011;27765;51.228;7.626;2022-08-01T02:14:16;95.13;;;34.90;;
42108;SDS011;27765;51.228;7.626;2022-08-01T02:16:45;97.57;;;35.58;;
42108;SDS011;27765;51.228;7.626;2022-08-01T02:19:14;102.25;;;36.75;;
42108;SDS011;27765;51.228;7.626;2022-08-01T02:21:49;109.75;;;39.33;;
42108;SDS011;27765;51.228;7.626;2022-08-01T02:24:34;119.50;;;39.47;;
42108;SDS011;27765;51.228;7.626;2022-08-01T02:27:12;112.70;;;38.63;;
42108;SDS011;27765;51.228;7.626;2022-08-01T02:29:43;124.78;;;41.50;;
42108;SDS011;27765;51.228;7.626;2022-08-01T02:32:41;124.82;;;41.15;;
42108;SDS011;27765;51.228;7.626;2022-08-01T02:35:12;127.72;;;41.53;;
42108;SDS011;27765;51.228;7.626;2022-08-01T02:37:43;112.97;;;41.55;;
42108;SDS011;27765;51.228;7.626;2022-08-01T02:40:12;119.45;;;41.97;;
42108;SDS011;27765;51.228;7.626;2022-08-01T02:42:41;126.90;;;45.03;;
42108;SDS011;27765;51.228;7.626;2022-08-01T02:45:14;124.38;;;42.00;;
42108;SDS011;27765;51.228;7.626;2022-08-01T02:47:44;144.13;;;44.20;;
42108;SDS011;27765;51.228;7.626;2022-08-01T02:50:12;134.45;;;46.20;;
42108;SDS011;27765;51.228;7.626;2022-08-01T02:52:42;118.63;;;43.38;;
42108;SDS011;27765;51.228;7.626;2022-08-01T02:55:12;129.00;;;44.80;;
42108;SDS011;27765;51.228;7.626;2022-08-01T02:57:39;117.90;;;42.25;;
42108;SDS011;27765;51.228;7.626;2022-08-01T03:00:07;152.00;;;46.17;;
42108;SDS011;27765;51.228;7.626;2022-08-01T03:02:34;131.77;;;44.63;;
42108;SDS011;27765;51.228;7.626;2022-08-01T03:05:02;133.63;;;44.70;;
42108;SDS011;27765;51.228;7.626;2022-08-01T03:07:29;129.98;;;44.30;;
42108;SDS011;27765;51.228;7.626;2022-08-01T03:09:56;113.88;;;41.45;;
42108;SDS011;27765;51.228;7.626;2022-08-01T03:12:24;117.85;;;44.05;;
42108;SDS011;27765;51.228;7.626;2022-08-01T03:14:54;129.93;;;43.60;;
42108;SDS011;27765;51.228;7.626;2022-08-01T03:17:24;121.97;;;41.97;;
42108;SDS011;27765;51.228;7.626;2022-08-01T03:19:53;119.68;;;40.42;;
42108;SDS011;27765;51.228;7.626;2022-08-01T03:22:22;117.97;;;40.97;;
42108;SDS011;27765;51.228;7.626;2022-08-01T03:24:51;118.80;;;41.40;;
42108;SDS011;27765;51.228;7.626;2022-08-01T03:27:22;118.03;;;39.88;;
42108;SDS011;27765;51.228;7.626;2022-08-01T03:29:50;114.72;;;37.97;;
42108;SDS011;27765;51.228;7.626;2022-08-01T03:32:18;118.40;;;42.25;;
42108;SDS011;27765;51.228;7.626;2022-08-01T03:34:46;108.68;;;39.63;;
42108;SDS011;27765;51.228;7.626;2022-08-01T03:37:17;119.28;;;39.28;;
42108;SDS011;27765;51.228;7.626;2022-08-01T03:39:47;118.65;;;39.55;;
42108;SDS011;27765;51.228;7.626;2022-08-01T03:42:20;115.65;;;39.72;;
42108;SDS011;27765;51.228;7.626;2022-08-01T03:44:52;121.53;;;39.37;;
42108;SDS011;27765;51.228;7.626;2022-08-01T03:49:51;106.18;;;36.88;;
42108;SDS011;27765;51.228;7.626;2022-08-01T03:52:19;116.20;;;39.40;;
42108;SDS011;27765;51.228;7.626;2022-08-01T03:54:46;114.68;;;39.88;;
42108;SDS011;27765;51.228;7.626;2022-08-01T03:57:14;126.28;;;41.72;;
42108;SDS011;27765;51.228;7.626;2022-08-01T03:59:41;117.00;;;39.63;;
42108;SDS011;27765;51.228;7.626;2022-08-01T04:02:08;135.20;;;40.35;;
42108;SDS011;27765;51.228;7.626;2022-08-01T04:04:35;125.20;;;42.20;;
42108;SDS011;27765;51.228;7.626;2022-08-01T04:07:01;129.38;;;42.35;;
42108;SDS011;27765;51.228;7.626;2022-08-01T04:09:32;135.73;;;42.28;;
42108;SDS011;27765;51.228;7.626;2022-08-01T04:11:58;134.80;;;42.42;;
42108;SDS011;27765;51.228;7.626;2022-08-01T04:14:26;143.25;;;42.15;;
42108;SDS011;27765;51.228;7.626;2022-08-01T04:16:53;125.05;;;42.90;;
42108;SDS011;27765;51.228;7.626;2022-08-01T04:19:20;123.38;;;42.30;;
42108;SDS011;27765;51.228;7.626;2022-08-01T04:21:46;125.88;;;43.65;;
42108;SDS011;27765;51.228;7.626;2022-08-01T04:24:14;125.53;;;42.70;;
42108;SDS011;27765;51.228;7.626;2022-08-01T04:26:43;118.10;;;42.03;;
42108;SDS011;27765;51.228;7.626;2022-08-01T04:29:11;121.15;;;40.58;;
42108;SDS011;27765;51.228;7.626;2022-08-01T04:31:42;123.03;;;42.13;;
42108;SDS011;27765;51.228;7.626;2022-08-01T04:34:10;140.02;;;43.25;;
42108;SDS011;27765;51.228;7.626;2022-08-01T04:36:41;125.82;;;42.05;;
42108;SDS011;27765;51.228;7.626;2022-08-01T04:39:07;126.47;;;41.45;;
42108;SDS011;27765;51.228;7.626;2022-08-01T04:41:35;137.43;;;43.70;;
42108;SDS011;27765;51.228;7.626;2022-08-01T04:44:02;129.38;;;43.83;;
42108;SDS011;27765;51.228;7.626;2022-08-01T04:46:30;128.88;;;44.72;;
42108;SDS011;27765;51.228;7.626;2022-08-01T04:48:58;141.13;;;44.97;;
42108;SDS011;27765;51.228;7.626;2022-08-01T04:51:25;137.88;;;43.63;;
42108;SDS011;27765;51.228;7.626;2022-08-01T04:53:51;159.25;;;45.67;;
42108;SDS011;27765;51.228;7.626;2022-08-01T04:56:18;143.95;;;43.88;;
42108;SDS011;27765;51.228;7.626;2022-08-01T04:58:46;141.88;;;45.92;;
42108;SDS011;27765;51.228;7.626;2022-08-01T05:01:12;139.30;;;45.95;;
42108;SDS011;27765;51.228;7.626;2022-08-01T05:03:38;142.95;;;46.10;;
42108;SDS011;27765;51.228;7.626;2022-08-01T05:06:05;140.65;;;47.15;;
42108;SDS011;27765;51.228;7.626;2022-08-01T05:08:31;143.05;;;44.00;;
42108;SDS011;27765;51.228;7.626;2022-08-01T05:10:56;148.27;;;46.28;;
42108;SDS011;27765;51.228;7.626;2022-08-01T05:13:23;129.80;;;43.42;;
42108;SDS011;27765;51.228;7.626;2022-08-01T05:15:49;114.53;;;42.95;;
42108;SDS011;27765;51.228;7.626;2022-08-01T05:18:15;121.20;;;44.00;;
42108;SDS011;27765;51.228;7.626;2022-08-01T05:20:41;121.40;;;42.60;;
42108;SDS011;27765;51.228;7.626;2022-08-01T05:23:07;118.63;;;42.50;;
42108;SDS011;27765;51.228;7.626;2022-08-01T05:25:34;111.47;;;40.47;;
42108;SDS011;27765;51.228;7.626;2022-08-01T05:28:02;110.28;;;39.58;;
42108;SDS011;27765;51.228;7.626;2022-08-01T05:30:31;94.10;;;36.72;;
42108;SDS011;27765;51.228;7.626;2022-08-01T05:33:16;86.63;;;35.42;;
42108;SDS011;27765;51.228;7.626;2022-08-01T05:35:59;86.35;;;35.92;;
42108;SDS011;27765;51.228;7.626;2022-08-01T05:38:45;83.15;;;34.13;;
42108;SDS011;27765;51.228;7.626;2022-08-01T05:41:30;85.13;;;35.13;;
42108;SDS011;27765;51.228;7.626;2022-08-01T05:43:56;80.95;;;35.67;;
42108;SDS011;27765;51.228;7.626;2022-08-01T05:46:22;75.35;;;35.15;;
42108;SDS011;27765;51.228;7.626;2022-08-01T05:48:48;80.30;;;36.05;;
42108;SDS011;27765;51.228;7.626;2022-08-01T05:51:14;82.20;;;37.22;;
42108;SDS011;27765;51.228;7.626;2022-08-01T05:53:40;74.97;;;35.80;;
42108;SDS011;27765;51.228;7.626;2022-08-01T05:56:06;76.28;;;34.95;;
42108;SDS011;27765;51.228;7.626;2022-08-01T05:58:50;79.60;;;35.58;;
42108;SDS011;27765;51.228;7.626;2022-08-01T06:01:34;79.25;;;35.28;;
42108;SDS011;27765;51.228;7.626;2022-08-01T06:04:18;82.88;;;37.00;;
42108;SDS011;27765;51.228;7.626;2022-08-01T06:06:44;78.22;;;35.15;;
42108;SDS011;27765;51.228;7.626;2022-08-01T06:09:11;74.78;;;35.20;;
42108;SDS011;27765;51.228;7.626;2022-08-01T06:11:37;81.43;;;36.05;;
42108;SDS011;27765;51.228;7.626;2022-08-01T06:14:03;70.60;;;34.65;;
42108;SDS011;27765;51.228;7.626;2022-08-01T06:16:47;75.22;;;35.90;;
42108;SDS011;27765;51.228;7.626;2022-08-01T06:19:31;59.42;;;31.10;;
42108;SDS011;27765;51.228;7.626;2022-08-01T06:21:57;55.53;;;31.17;;
42108;SDS011;27765;51.228;7.626;2022-08-01T06:24:23;56.83;;;31.48;;
42108;SDS011;27765;51.228;7.626;2022-08-01T06:26:49;48.65;;;28.60;;
42108;SDS011;27765;51.228;7.626;2022-08-01T06:29:15;53.58;;;30.17;;
42108;SDS011;27765;51.228;7.626;2022-08-01T06:31:41;48.92;;;28.23;;
42108;SDS011;27765;51.228;7.626;2022-08-01T06:34:07;47.97;;;29.40;;
42108;SDS011;27765;51.228;7.626;2022-08-01T06:36:33;42.08;;;27.80;;
42108;SDS011;27765;51.228;7.626;2022-08-01T06:38:59;39.13;;;26.85;;
42108;SDS011;27765;51.228;7.626;2022-08-01T06:41:25;38.55;;;27.17;;
42108;SDS011;27765;51.228;7.626;2022-08-01T06:43:51;40.70;;;25.83;;
42108;SDS011;27765;51.228;7.626;2022-08-01T06:46:17;38.03;;;26.88;;
42108;SDS011;27765;51.228;7.626;2022-08-01T06:48:43;36.15;;;25.17;;
42108;SDS011;27765;51.228;7.626;2022-08-01T06:51:09;32.03;;;23.10;;
42108;SDS011;27765;51.228;7.626;2022-08-01T06:53:38;32.22;;;22.45;;
42108;SDS011;27765;51.228;7.626;2022-08-01T06:56:04;30.05;;;22.90;;
42108;SDS011;27765;51.228;7.626;2022-08-01T06:58:31;33.25;;;23.98;;
42108;SDS011;27765;51.228;7.626;2022-08-01T07:01:00;33.95;;;24.52;;
42108;SDS011;27765;51.228;7.626;2022-08-01T07:03:26;34.95;;;24.42;;
42108;SDS011;27765;51.228;7.626;2022-08-01T07:05:52;34.65;;;25.50;;
42108;SDS011;27765;51.228;7.626;2022-08-01T07:08:36;35.03;;;24.23;;
42108;SDS011;27765;51.228;7.626;2022-08-01T07:11:21;34.13;;;24.52;;
42108;SDS011;27765;51.228;7.626;2022-08-01T07:14:00;31.23;;;23.17;;
42108;SDS011;27765;51.228;7.626;2022-08-01T07:16:26;30.63;;;22.58;;
42108;SDS011;27765;51.228;7.626;2022-08-01T07:18:52;26.30;;;20.60;;
42108;SDS011;27765;51.228;7.626;2022-08-01T07:21:18;25.33;;;20.45;;
42108;SDS011;27765;51.228;7.626;2022-08-01T07:23:45;23.95;;;19.50;;
42108;SDS011;27765;51.228;7.626;2022-08-01T07:26:11;24.88;;;18.20;;
42108;SDS011;27765;51.228;7.626;2022-08-01T07:28:38;20.02;;;17.20;;
42108;SDS011;27765;51.228;7.626;2022-08-01T07:31:04;22.80;;;17.60;;
42108;SDS011;27765;51.228;7.626;2022-08-01T07:33:30;25.70;;;18.40;;
42108;SDS011;27765;51.228;7.626;2022-08-01T07:35:56;23.02;;;17.50;;
42108;SDS011;27765;51.228;7.626;2022-08-01T07:38:22;22.92;;;17.75;;
42108;SDS011;27765;51.228;7.626;2022-08-01T07:40:48;22.50;;;17.30;;
42108;SDS011;27765;51.228;7.626;2022-08-01T07:43:14;21.92;;;16.52;;
42108;SDS011;27765;51.228;7.626;2022-08-01T07:45:41;18.27;;;15.70;;
42108;SDS011;27765;51.228;7.626;2022-08-01T07:48:07;17.17;;;14.65;;
42108;SDS011;27765;51.228;7.626;2022-08-01T07:50:33;16.70;;;14.32;;
42108;SDS011;27765;51.228;7.626;2022-08-01T07:52:59;16.42;;;14.00;;
42108;SDS011;27765;51.228;7.626;2022-08-01T07:55:43;17.05;;;13.80;;
42108;SDS011;27765;51.228;7.626;2022-08-01T07:58:29;13.55;;;11.65;;
42108;SDS011;27765;51.228;7.626;2022-08-01T08:01:13;13.15;;;10.82;;
42108;SDS011;27765;51.228;7.626;2022-08-01T08:03:39;10.73;;;9.63;;
42108;SDS011;27765;51.228;7.626;2022-08-01T08:06:05;10.75;;;9.75;;
42108;SDS011;27765;51.228;7.626;2022-08-01T08:08:31;9.57;;;8.65;;
42108;SDS011;27765;51.228;7.626;2022-08-01T08:11:00;8.40;;;7.57;;
42108;SDS011;27765;51.228;7.626;2022-08-01T08:13:26;7.28;;;6.57;;
42108;SDS011;27765;51.228;7.626;2022-08-01T08:15:53;7.53;;;6.82;;
42108;SDS011;27765;51.228;7.626;2022-08-01T08:18:19;8.30;;;7.50;;
42108;SDS011;27765;51.228;7.626;2022-08-01T08:20:45;8.52;;;7.63;;
42108;SDS011;27765;51.228;7.626;2022-08-01T08:23:12;7.90;;;6.72;;
42108;SDS011;27765;51.228;7.626;2022-08-01T08:25:57;5.63;;;5.05;;
42108;SDS011;27765;51.228;7.626;2022-08-01T08:28:23;6.35;;;5.50;;
42108;SDS011;27765;51.228;7.626;2022-08-01T08:30:49;6.00;;;5.40;;
42108;SDS011;27765;51.228;7.626;2022-08-01T08:33:15;5.45;;;4.93;;
42108;SDS011;27765;51.228;7.626;2022-08-01T08:35:41;4.55;;;3.90;;
42108;SDS011;27765;51.228;7.626;2022-08-01T08:38:08;4.05;;;3.75;;
42108;SDS011;27765;51.228;7.626;2022-08-01T08:40:35;4.18;;;3.50;;
42108;SDS011;27765;51.228;7.626;2022-08-01T08:43:03;3.65;;;3.35;;
42108;SDS011;27765;51.228;7.626;2022-08-01T08:45:32;4.00;;;3.30;;
42108;SDS011;27765;51.228;7.626;2022-08-01T08:47:58;4.30;;;3.90;;
42108;SDS011;27765;51.228;7.626;2022-08-01T08:50:25;5.15;;;4.53;;
42108;SDS011;27765;51.228;7.626;2022-08-01T08:52:53;4.88;;;4.32;;
42108;SDS011;27765;51.228;7.626;2022-08-01T08:55:21;4.88;;;4.22;;
42108;SDS011;27765;51.228;7.626;2022-08-01T08:57:48;4.15;;;3.22;;
42108;SDS011;27765;51.228;7.626;2022-08-01T09:00:15;4.25;;;3.40;;
42108;SDS011;27765;51.228;7.626;2022-08-01T09:02:42;4.53;;;3.13;;
42108;SDS011;27765;51.228;7.626;2022-08-01T09:05:11;6.10;;;2.92;;
42108;SDS011;27765;51.228;7.626;2022-08-01T09:07:38;2.42;;;2.22;;
42108;SDS011;27765;51.228;7.626;2022-08-01T09:10:05;3.50;;;2.72;;
42108;SDS011;27765;51.228;7.626;2022-08-01T09:12:37;3.15;;;2.70;;
42108;SDS011;27765;51.228;7.626;2022-08-01T09:15:30;4.35;;;3.70;;
42108;SDS011;27765;51.228;7.626;2022-08-01T09:18:37;3.72;;;3.10;;
42108;SDS011;27765;51.228;7.626;2022-08-01T09:21:25;3.67;;;2.70;;
42108;SDS011;27765;51.228;7.626;2022-08-01T09:24:15;3.03;;;2.42;;
42108;SDS011;27765;51.228;7.626;2022-08-01T09:27:15;2.58;;;2.38;;
42108;SDS011;27765;51.228;7.626;2022-08-01T09:30:09;1.98;;;1.88;;
42108;SDS011;27765;51.228;7.626;2022-08-01T09:35:45;2.95;;;1.55;;
42108;SDS011;27765;51.228;7.626;2022-08-01T09:38:40;1.40;;;1.30;;
42108;SDS011;27765;51.228;7.626;2022-08-01T09:41:30;2.10;;;1.90;;
42108;SDS011;27765;51.228;7.626;2022-08-01T09:44:16;2.58;;;2.13;;
42108;SDS011;27765;51.228;7.626;2022-08-01T09:47:03;2.05;;;1.60;;
42108;SDS011;27765;51.228;7.626;2022-08-01T09:49:31;2.17;;;1.80;;
42108;SDS011;27765;51.228;7.626;2022-08-01T09:52:22;1.67;;;1.40;;
42108;SDS011;27765;51.228;7.626;2022-08-01T09:54:52;1.45;;;1.30;;
42108;SDS011;27765;51.228;7.626;2022-08-01T09:57:21;1.45;;;1.30;;
42108;SDS011;27765;51.228;7.626;2022-08-01T09:59:49;4.03;;;1.92;;
42108;SDS011;27765;51.228;7.626;2022-08-01T10:02:34;2.17;;;1.83;;
42108;SDS011;27765;51.228;7.626;2022-08-01T10:05:03;2.63;;;1.35;;
42108;SDS011;27765;51.228;7.626;2022-08-01T10:07:32;1.75;;;1.20;;
42108;SDS011;27765;51.228;7.626;2022-08-01T10:10:11;1.85;;;1.60;;
42108;SDS011;27765;51.228;7.626;2022-08-01T10:12:38;1.55;;;1.45;;
42108;SDS011;27765;51.228;7.626;2022-08-01T10:15:06;2.88;;;2.10;;
42108;SDS011;27765;51.228;7.626;2022-08-01T10:17:33;1.73;;;1.63;;
42108;SDS011;27765;51.228;7.626;2022-08-01T10:20:02;1.67;;;1.58;;
42108;SDS011;27765;51.228;7.626;2022-08-01T10:22:30;1.73;;;1.40;;
42108;SDS011;27765;51.228;7.626;2022-08-01T10:24:57;1.88;;;1.40;;
42108;SDS011;27765;51.228;7.626;2022-08-01T10:27:28;1.40;;;1.30;;
42108;SDS011;27765;51.228;7.626;2022-08-01T10:29:58;4.15;;;1.38;;
42108;SDS011;27765;51.228;7.626;2022-08-01T10:32:33;3.75;;;1.60;;
42108;SDS011;27765;51.228;7.626;2022-08-01T10:35:01;1.27;;;1.17;;
42108;SDS011;27765;51.228;7.626;2022-08-01T10:37:29;1.48;;;1.25;;
42108;SDS011;27765;51.228;7.626;2022-08-01T10:39:58;1.42;;;1.27;;
42108;SDS011;27765;51.228;7.626;2022-08-01T10:42:25;1.40;;;1.17;;
42108;SDS011;27765;51.228;7.626;2022-08-01T10:44:52;2.85;;;1.30;;
42108;SDS011;27765;51.228;7.626;2022-08-01T10:47:40;2.25;;;1.50;;
42108;SDS011;27765;51.228;7.626;2022-08-01T10:50:42;2.70;;;1.58;;
42108;SDS011;27765;51.228;7.626;2022-08-01T10:53:13;2.95;;;2.00;;
42108;SDS011;27765;51.228;7.626;2022-08-01T10:58:20;2.10;;;1.90;;
42108;SDS011;27765;51.228;7.626;2022-08-01T11:00:48;2.80;;;1.88;;
42108;SDS011;27765;51.228;7.626;2022-08-01T11:03:34;2.45;;;1.85;;
42108;SDS011;27765;51.228;7.626;2022-08-01T11:06:00;2.03;;;1.83;;
42108;SDS011;27765;51.228;7.626;2022-08-01T11:08:29;4.55;;;1.73;;
42108;SDS011;27765;51.228;7.626;2022-08-01T11:11:02;4.65;;;1.52;;
42108;SDS011;27765;51.228;7.626;2022-08-01T11:16:29;2.97;;;1.75;;
42108;SDS011;27765;51.228;7.626;2022-08-01T11:18:56;2.50;;;1.83;;
42108;SDS011;27765;51.228;7.626;2022-08-01T11:21:50;1.48;;;1.38;;
42108;SDS011;27765;51.228;7.626;2022-08-01T11:29:43;3.70;;;1.60;;
42108;SDS011;27765;51.228;7.626;2022-08-01T11:32:29;2.10;;;1.90;;
42108;SDS011;27765;51.228;7.626;2022-08-01T11:34:55;5.38;;;2.30;;
42108;SDS011;27765;51.228;7.626;2022-08-01T11:37:25;1.90;;;1.80;;
42108;SDS011;27765;51.228;7.626;2022-08-01T11:42:49;3.00;;;1.52;;
42108;SDS011;27765;51.228;7.626;2022-08-01T11:45:55;5.70;;;1.67;;
42108;SDS011;27765;51.228;7.626;2022-08-01T11:48:24;1.85;;;1.60;;
42108;SDS011;27765;51.228;7.626;2022-08-01T11:50:52;1.90;;;1.70;;
42108;SDS011;27765;51.228;7.626;2022-08-01T11:53:20;2.00;;;1.90;;
42108;SDS011;27765;51.228;7.626;2022-08-01T11:55:50;5.13;;;2.03;;
42108;SDS011;27765;51.228;7.626;2022-08-01T11:58:24;2.00;;;1.83;;
42108;SDS011;27765;51.228;7.626;2022-08-01T12:03:29;3.47;;;1.95;;
42108;SDS011;27765;51.228;7.626;2022-08-01T12:05:57;2.05;;;1.85;;
42108;SDS011;27765;51.228;7.626;2022-08-01T12:08:24;8.25;;;2.55;;
42108;SDS011;27765;51.228;7.626;2022-08-01T12:10:51;1.73;;;1.63;;
42108;SDS011;27765;51.228;7.626;2022-08-01T12:13:17;5.28;;;1.60;;
42108;SDS011;27765;51.228;7.626;2022-08-01T12:15:43;5.10;;;1.67;;
42108;SDS011;27765;51.228;7.626;2022-08-01T12:18:11;1.42;;;1.27;;
42108;SDS011;27765;51.228;7.626;2022-08-01T12:20:40;3.53;;;1.45;;
42108;SDS011;27765;51.228;7.626;2022-08-01T12:23:12;15.52;;;2.10;;
42108;SDS011;27765;51.228;7.626;2022-08-01T12:25:39;4.90;;;1.60;;
42108;SDS011;27765;51.228;7.626;2022-08-01T12:28:07;3.15;;;1.40;;
42108;SDS011;27765;51.228;7.626;2022-08-01T12:30:34;5.45;;;1.38;;
42108;SDS011;27765;51.228;7.626;2022-08-01T12:33:05;1.85;;;1.73;;
42108;SDS011;27765;51.228;7.626;2022-08-01T12:35:33;24.95;;;2.50;;
42108;SDS011;27765;51.228;7.626;2022-08-01T12:38:03;1.80;;;1.17;;
42108;SDS011;27765;51.228;7.626;2022-08-01T12:40:35;6.20;;;1.70;;
42108;SDS011;27765;51.228;7.626;2022-08-01T12:43:06;10.15;;;1.80;;
42108;SDS011;27765;51.228;7.626;2022-08-01T12:48:00;1.52;;;1.30;;
42108;SDS011;27765;51.228;7.626;2022-08-01T12:50:28;5.78;;;1.60;;
42108;SDS011;27765;51.228;7.626;2022-08-01T12:52:55;2.60;;;1.20;;
42108;SDS011;27765;51.228;7.626;2022-08-01T12:55:26;3.13;;;1.50;;
42108;SDS011;27765;51.228;7.626;2022-08-01T12:58:05;1.75;;;1.48;;
42108;SDS011;27765;51.228;7.626;2022-08-01T13:00:33;3.25;;;1.65;;
42108;SDS011;27765;51.228;7.626;2022-08-01T13:03:10;6.50;;;1.48;;
42108;SDS011;27765;51.228;7.626;2022-08-01T13:05:43;3.63;;;1.45;;
42108;SDS011;27765;51.228;7.626;2022-08-01T13:08:21;1.50;;;1.30;;
42108;SDS011;27765;51.228;7.626;2022-08-01T13:11:06;2.70;;;1.20;;
42108;SDS011;27765;51.228;7.626;2022-08-01T13:13:37;3.33;;;1.13;;
42108;SDS011;27765;51.228;7.626;2022-08-01T13:16:04;1.85;;;1.42;;
42108;SDS011;27765;51.228;7.626;2022-08-01T13:18:32;9.48;;;2.20;;
42108;SDS011;27765;51.228;7.626;2022-08-01T13:21:12;1.75;;;1.10;;
42108;SDS011;27765;51.228;7.626;2022-08-01T13:23:59;1.42;;;1.10;;
42108;SDS011;27765;51.228;7.626;2022-08-01T13:26:46;1.92;;;1.23;;
42108;SDS011;27765;51.228;7.626;2022-08-01T13:29:13;1.88;;;1.27;;
42108;SDS011;27765;51.228;7.626;2022-08-01T13:32:00;3.05;;;1.30;;
42108;SDS011;27765;51.228;7.626;2022-08-01T13:34:38;4.13;;;1.20;;
42108;SDS011;27765;51.228;7.626;2022-08-01T13:37:04;6.03;;;1.10;;
42108;SDS011;27765;51.228;7.626;2022-08-01T13:39:30;3.17;;;1.15;;
42108;SDS011;27765;51.228;7.626;2022-08-01T13:42:13;2.53;;;0.80;;
42108;SDS011;27765;51.228;7.626;2022-08-01T13:44:40;23.27;;;1.83;;
42108;SDS011;27765;51.228;7.626;2022-08-01T13:47:07;1.77;;;0.80;;
42108;SDS011;27765;51.228;7.626;2022-08-01T13:49:34;1.30;;;0.90;;
42108;SDS011;27765;51.228;7.626;2022-08-01T13:52:00;22.90;;;1.67;;
42108;SDS011;27765;51.228;7.626;2022-08-01T13:54:26;7.85;;;1.50;;
42108;SDS011;27765;51.228;7.626;2022-08-01T13:56:53;2.92;;;0.70;;
42108;SDS011;27765;51.228;7.626;2022-08-01T13:59:19;1.15;;;1.00;;
42108;SDS011;27765;51.228;7.626;2022-08-01T14:02:04;3.45;;;1.20;;
42108;SDS011;27765;51.228;7.626;2022-08-01T14:04:30;1.55;;;0.98;;
42108;SDS011;27765;51.228;7.626;2022-08-01T14:07:14;1.58;;;0.80;;
42108;SDS011;27765;51.228;7.626;2022-08-01T14:09:41;1.25;;;0.68;;
42108;SDS011;27765;51.228;7.626;2022-08-01T14:12:25;1.08;;;1.00;;
42108;SDS011;27765;51.228;7.626;2022-08-01T14:15:10;8.45;;;1.33;;
42108;SDS011;27765;51.228;7.626;2022-08-01T14:17:56;3.20;;;0.93;;
42108;SDS011;27765;51.228;7.626;2022-08-01T14:20:42;1.02;;;0.95;;
42108;SDS011;27765;51.228;7.626;2022-08-01T14:23:28;1.50;;;0.80;;
42108;SDS011;27765;51.228;7.626;2022-08-01T14:26:14;4.10;;;1.02;;
42108;SDS011;27765;51.228;7.626;2022-08-01T14:29:00;4.28;;;1.13;;
42108;SDS011;27765;51.228;7.626;2022-08-01T14:31:46;7.68;;;1.13;;
42108;SDS011;27765;51.228;7.626;2022-08-01T14:34:32;2.28;;;0.90;;
42108;SDS011;27765;51.228;7.626;2022-08-01T14:36:59;13.00;;;1.40;;
42108;SDS011;27765;51.228;7.626;2022-08-01T14:39:43;8.30;;;1.05;;
42108;SDS011;27765;51.228;7.626;2022-08-01T14:42:09;4.82;;;1.13;;
42108;SDS011;27765;51.228;7.626;2022-08-01T14:44:35;1.42;;;0.80;;
42108;SDS011;27765;51.228;7.626;2022-08-01T14:47:01;0.85;;;0.70;;
42108;SDS011;27765;51.228;7.626;2022-08-01T14:49:27;1.00;;;0.70;;
42108;SDS011;27765;51.228;7.626;2022-08-01T14:52:11;1.63;;;0.85;;
42108;SDS011;27765;51.228;7.626;2022-08-01T14:54:40;1.20;;;0.80;;
42108;SDS011;27765;51.228;7.626;2022-08-01T14:57:06;1.73;;;0.77;;
42108;SDS011;27765;51.228;7.626;2022-08-01T14:59:33;1.20;;;0.70;;
42108;SDS011;27765;51.228;7.626;2022-08-01T15:02:00;0.90;;;0.90;;
42108;SDS011;27765;51.228;7.626;2022-08-01T15:04:27;2.28;;;0.80;;
42108;SDS011;27765;51.228;7.626;2022-08-01T15:06:53;0.93;;;0.90;;
42108;SDS011;27765;51.228;7.626;2022-08-01T15:09:19;0.75;;;0.73;;
42108;SDS011;27765;51.228;7.626;2022-08-01T15:11:45;0.50;;;0.50;;
42108;SDS011;27765;51.228;7.626;2022-08-01T15:14:12;1.10;;;0.75;;
42108;SDS011;27765;51.228;7.626;2022-08-01T15:16:56;2.58;;;0.77;;
42108;SDS011;27765;51.228;7.626;2022-08-01T15:19:22;1.27;;;0.80;;
42108;SDS011;27765;51.228;7.626;2022-08-01T15:22:06;5.55;;;0.95;;
42108;SDS011;27765;51.228;7.626;2022-08-01T15:24:33;0.80;;;0.80;;
42108;SDS011;27765;51.228;7.626;2022-08-01T15:26:58;1.13;;;0.80;;